Time;durP1;ratioP1;P1;durP2;ratioP2;P2;SDS_P1;SDS_P2;PMS_P1;PMS_P2;Temp;Humidity;BMP_temperature;BMP_pressure;BME280_temperature;BME280_humidity;BME280_pressure;Samples;Min_cycle;Max_cycle;Signal;HPM_P1;HPM_P2
2022/11/23 00:02:04;;;;;;;0.10;0.10;;;7.00;99.90;;;;;;5063551;28;20657;-80
2022/11/23 00:04:30;;;;;;;0.10;0.10;;;7.00;99.90;;;;;;5059908;28;20199;-80
2022/11/23 00:06:55;;;;;;;0.10;0.10;;;7.00;99.90;;;;;;5066018;28;20182;-80
2022/11/23 00:09:21;;;;;;;0.10;0.10;;;7.00;99.90;;;;;;5058056;28;20186;-80
2022/11/23 00:11:48;;;;;;;0.10;0.10;;;7.00;99.90;;;;;;5067051;28;20293;-80
2022/11/23 00:14:13;;;;;;;0.10;0.10;;;7.00;99.90;;;;;;5057431;28;20300;-80
2022/11/23 00:16:39;;;;;;;0.10;0.10;;;6.90;99.90;;;;;;5066379;28;20182;-81
2022/11/23 00:19:04;;;;;;;0.10;0.10;;;6.90;99.90;;;;;;5057561;28;20646;-80
2022/11/23 00:21:31;;;;;;;0.10;0.10;;;7.00;99.90;;;;;;5065411;28;20864;-80
2022/11/23 00:23:57;;;;;;;0.10;0.10;;;7.00;99.90;;;;;;5056898;28;20206;-80
2022/11/23 00:26:22;;;;;;;0.10;0.10;;;7.00;99.90;;;;;;5065170;28;20301;-80
2022/11/23 00:28:48;;;;;;;0.20;0.20;;;7.00;99.90;;;;;;5059055;28;20182;-80
2022/11/23 00:31:19;;;;;;;0.00;0.00;;;7.10;99.90;;;;;;5062735;28;20189;-80
2022/11/23 00:33:52;;;;;;;0.10;0.10;;;7.10;99.90;;;;;;5059578;28;20293;-80
2022/11/23 00:36:19;;;;;;;0.10;0.10;;;7.10;99.90;;;;;;5063619;28;20217;-80
2022/11/23 00:38:46;;;;;;;0.10;0.10;;;7.10;99.90;;;;;;5061825;28;20240;-80
2022/11/23 00:41:14;;;;;;;0.10;0.10;;;7.00;99.90;;;;;;5059014;28;20273;-80
2022/11/23 00:43:40;;;;;;;0.10;0.10;;;6.90;99.90;;;;;;5062981;28;20256;-80
2022/11/23 00:46:13;;;;;;;0.10;0.10;;;6.90;99.90;;;;;;5055710;28;20210;-80
2022/11/23 00:48:39;;;;;;;0.10;0.10;;;6.90;99.90;;;;;;5058516;28;20236;-80
2022/11/23 00:51:07;;;;;;;0.10;0.10;;;7.00;99.90;;;;;;5067015;28;20267;-80
2022/11/23 00:53:33;;;;;;;0.10;0.10;;;7.00;99.90;;;;;;5054437;28;20307;-80
2022/11/23 00:55:59;;;;;;;0.10;0.10;;;6.80;99.90;;;;;;5066111;28;20185;-80
2022/11/23 00:58:25;;;;;;;0.10;0.10;;;6.90;99.90;;;;;;5054416;28;20186;-80
2022/11/23 01:01:18;;;;;;;0.10;0.10;;;6.90;99.90;;;;;;5065373;28;20177;-80
2022/11/23 01:03:46;;;;;;;0.10;0.10;;;7.00;99.90;;;;;;5055899;28;20202;-80
2022/11/23 01:06:15;;;;;;;0.10;0.10;;;7.00;99.90;;;;;;5058705;28;20199;-80
2022/11/23 01:08:41;;;;;;;0.10;0.10;;;7.10;99.90;;;;;;5063337;28;20178;-80
2022/11/23 01:11:10;;;;;;;0.10;0.10;;;7.00;99.90;;;;;;5066521;28;20669;-80
2022/11/23 01:13:37;;;;;;;0.10;0.10;;;7.20;99.90;;;;;;5062248;28;20205;-80
2022/11/23 01:16:03;;;;;;;0.10;0.10;;;7.30;99.90;;;;;;5056230;28;20572;-80
2022/11/23 01:18:29;;;;;;;0.10;0.10;;;7.20;99.90;;;;;;5064499;28;20267;-80
2022/11/23 01:20:55;;;;;;;0.10;0.10;;;7.30;99.90;;;;;;5058810;28;20215;-80
2022/11/23 01:23:20;;;;;;;0.10;0.10;;;7.40;99.90;;;;;;5061369;28;20567;-80
2022/11/23 01:25:46;;;;;;;0.10;0.10;;;7.50;99.90;;;;;;5060959;28;20209;-80
2022/11/23 01:28:11;;;;;;;0.10;0.10;;;7.30;99.90;;;;;;5057296;28;20191;-80
2022/11/23 01:30:37;;;;;;;0.10;0.10;;;7.20;99.90;;;;;;5063613;28;20235;-80
2022/11/23 01:33:03;;;;;;;0.10;0.10;;;7.10;99.90;;;;;;5055614;28;20237;-80
2022/11/23 01:35:29;;;;;;;0.10;0.10;;;7.20;99.90;;;;;;5064908;28;20186;-80
2022/11/23 01:37:55;;;;;;;0.10;0.10;;;7.10;99.90;;;;;;5052931;28;20214;-80
2022/11/23 01:40:21;;;;;;;0.10;0.10;;;7.10;99.90;;;;;;5068140;28;20181;-80
2022/11/23 01:42:52;;;;;;;0.10;0.10;;;7.00;99.90;;;;;;5058479;28;20616;-80
2022/11/23 01:45:44;;;;;;;0.10;0.10;;;7.00;99.90;;;;;;5054180;28;20606;-80
2022/11/23 01:48:18;;;;;;;0.10;0.10;;;7.10;99.90;;;;;;5064363;28;20602;-80
2022/11/23 01:50:47;;;;;;;0.10;0.10;;;7.10;99.90;;;;;;5055045;28;20621;-80
2022/11/23 01:53:14;;;;;;;0.10;0.10;;;6.90;99.90;;;;;;5064874;28;20202;-80
2022/11/23 01:55:40;;;;;;;0.10;0.10;;;6.90;99.90;;;;;;5055408;28;20185;-80
2022/11/23 01:58:09;;;;;;;0.10;0.10;;;7.00;99.90;;;;;;5065272;28;20181;-81
2022/11/23 02:00:35;;;;;;;0.00;0.00;;;7.00;99.90;;;;;;5061921;28;20190;-80
2022/11/23 02:03:03;;;;;;;0.10;0.10;;;7.00;99.90;;;;;;5055011;28;20209;-80
2022/11/23 02:05:34;;;;;;;0.10;0.10;;;6.90;99.90;;;;;;5063839;28;20254;-80
2022/11/23 02:08:01;;;;;;;0.10;0.10;;;7.10;99.90;;;;;;5056146;28;20183;-80
2022/11/23 02:10:30;;;;;;;0.10;0.10;;;7.10;99.90;;;;;;5065432;28;20185;-80
2022/11/23 02:12:59;;;;;;;0.10;0.10;;;6.80;99.90;;;;;;5057670;28;20307;-80
2022/11/23 02:15:24;;;;;;;0.10;0.10;;;6.90;99.90;;;;;;5060964;28;20693;-80
2022/11/23 02:17:50;;;;;;;0.10;0.10;;;7.10;99.90;;;;;;5070584;28;20185;-80
2022/11/23 02:20:17;;;;;;;0.10;0.10;;;7.20;99.90;;;;;;5067363;28;20245;-81
2022/11/23 02:23:08;;;;;;;0.10;0.10;;;7.00;99.90;;;;;;5064021;28;20552;-81
2022/11/23 02:25:44;;;;;;;0.10;0.10;;;7.00;99.90;;;;;;5063184;28;20250;-81
2022/11/23 02:28:23;;;;;;;0.10;0.10;;;6.90;99.90;;;;;;5046511;28;20288;-81
2022/11/23 02:30:51;;;;;;;0.10;0.10;;;6.80;99.90;;;;;;5063586;28;20232;-80
2022/11/23 02:33:17;;;;;;;0.10;0.10;;;6.80;99.90;;;;;;5064442;28;20217;-81
2022/11/23 02:35:54;;;;;;;0.10;0.10;;;6.70;99.90;;;;;;5062040;28;20181;-81
2022/11/23 02:38:21;;;;;;;0.10;0.10;;;6.70;99.90;;;;;;5059126;28;20874;-81
2022/11/23 02:40:47;;;;;;;0.10;0.10;;;6.90;99.90;;;;;;5060065;28;20177;-81
2022/11/23 02:43:13;;;;;;;0.10;0.10;;;6.90;99.90;;;;;;5067968;28;20663;-80
2022/11/23 02:45:51;;;;;;;0.10;0.10;;;7.00;99.90;;;;;;5068659;28;20211;-80
2022/11/23 02:48:17;;;;;;;0.10;0.10;;;7.10;99.90;;;;;;5067933;28;20249;-81
2022/11/23 02:50:43;;;;;;;0.10;0.10;;;7.10;99.90;;;;;;5058323;28;20830;-81
2022/11/23 02:53:09;;;;;;;0.10;0.10;;;7.00;99.90;;;;;;5070286;28;20295;-80
2022/11/23 02:55:35;;;;;;;0.10;0.10;;;7.20;99.90;;;;;;5058493;28;20629;-81
2022/11/23 02:58:01;;;;;;;0.10;0.10;;;7.30;99.90;;;;;;5061488;28;20193;-80
2022/11/23 03:00:27;;;;;;;0.10;0.10;;;7.40;99.90;;;;;;5068089;28;20270;-81
2022/11/23 03:02:52;;;;;;;0.10;0.10;;;7.40;99.90;;;;;;5060925;28;20363;-81
2022/11/23 03:05:18;;;;;;;0.10;0.10;;;7.50;99.90;;;;;;5066718;28;20214;-81
2022/11/23 03:07:43;;;;;;;0.10;0.10;;;7.70;99.90;;;;;;5062315;28;20256;-81
2022/11/23 03:10:09;;;;;;;0.10;0.10;;;7.70;99.90;;;;;;5063620;28;20181;-81
2022/11/23 03:12:35;;;;;;;0.10;0.10;;;7.60;99.90;;;;;;5064297;28;20216;-81
2022/11/23 03:15:01;;;;;;;0.10;0.10;;;7.70;99.90;;;;;;5060714;28;20189;-81
2022/11/23 03:17:27;;;;;;;0.10;0.10;;;7.50;99.90;;;;;;5058645;28;20563;-81
2022/11/23 03:19:52;;;;;;;0.10;0.10;;;7.60;99.90;;;;;;5063336;28;20600;-81
2022/11/23 03:22:18;;;;;;;0.10;0.10;;;7.60;99.90;;;;;;5066044;28;20192;-80
2022/11/23 03:24:44;;;;;;;0.10;0.10;;;7.50;99.90;;;;;;5063320;28;20303;-80
2022/11/23 03:27:10;;;;;;;0.10;0.10;;;7.70;99.90;;;;;;5069047;28;20265;-81
2022/11/23 03:29:35;;;;;;;0.10;0.10;;;7.80;99.90;;;;;;5057048;28;20188;-81
2022/11/23 03:32:01;;;;;;;0.10;0.10;;;7.90;99.90;;;;;;5067323;28;20188;-80
2022/11/23 03:34:27;;;;;;;0.10;0.10;;;8.00;99.90;;;;;;5059685;28;20277;-81
2022/11/23 03:36:52;;;;;;;0.10;0.10;;;8.00;99.90;;;;;;5066306;28;20182;-81
2022/11/23 03:39:18;;;;;;;0.10;0.10;;;8.00;99.90;;;;;;5060267;28;20246;-81
2022/11/23 03:41:43;;;;;;;0.10;0.10;;;8.10;99.90;;;;;;5064676;28;20238;-81
2022/11/23 03:44:09;;;;;;;0.10;0.10;;;8.00;99.90;;;;;;5061548;28;20217;-81
2022/11/23 03:46:34;;;;;;;0.10;0.10;;;8.00;99.90;;;;;;5062940;28;20206;-81
2022/11/23 03:49:00;;;;;;;0.10;0.10;;;7.80;99.90;;;;;;5061290;28;20177;-80
2022/11/23 03:51:26;;;;;;;0.10;0.10;;;7.70;99.90;;;;;;5066397;28;20185;-81
2022/11/23 03:53:51;;;;;;;0.10;0.10;;;7.60;99.90;;;;;;5059062;28;20224;-81
2022/11/23 03:56:17;;;;;;;0.10;0.10;;;7.40;99.90;;;;;;5058144;28;20181;-81
2022/11/23 03:58:42;;;;;;;0.10;0.10;;;7.40;99.90;;;;;;5066912;28;20186;-80
2022/11/23 04:01:08;;;;;;;0.10;0.10;;;7.50;99.90;;;;;;5056979;28;20689;-80
2022/11/23 04:03:33;;;;;;;0.00;0.00;;;7.50;99.90;;;;;;5067829;28;20213;-80
2022/11/23 04:05:59;;;;;;;0.10;0.10;;;7.50;99.90;;;;;;5056953;28;20219;-81
2022/11/23 04:08:25;;;;;;;0.10;0.10;;;7.60;99.90;;;;;;5065694;28;20180;-81
2022/11/23 04:10:50;;;;;;;0.10;0.10;;;7.70;99.90;;;;;;5058160;28;20202;-81
2022/11/23 04:13:16;;;;;;;0.10;0.10;;;7.90;99.90;;;;;;5066179;28;20226;-81
2022/11/23 04:15:42;;;;;;;0.10;0.10;;;8.00;99.90;;;;;;5063338;28;20234;-81
2022/11/23 04:18:07;;;;;;;0.10;0.10;;;8.00;99.90;;;;;;5059852;28;20183;-80
2022/11/23 04:20:33;;;;;;;0.10;0.10;;;7.80;99.90;;;;;;5062173;28;20242;-81
2022/11/23 04:22:58;;;;;;;0.10;0.10;;;7.70;99.90;;;;;;5063364;28;20746;-81
2022/11/23 04:25:24;;;;;;;0.10;0.10;;;7.60;99.90;;;;;;5058827;28;20286;-81
2022/11/23 04:27:49;;;;;;;0.10;0.10;;;7.70;99.90;;;;;;5065071;28;20585;-80
2022/11/23 04:30:15;;;;;;;0.10;0.10;;;7.60;99.90;;;;;;5057165;28;20170;-81
2022/11/23 04:32:44;;;;;;;0.10;0.10;;;7.60;99.90;;;;;;5071064;28;20177;-81
2022/11/23 04:35:10;;;;;;;0.10;0.10;;;7.50;99.90;;;;;;5066467;28;20189;-81
2022/11/23 04:37:35;;;;;;;0.10;0.10;;;7.50;99.90;;;;;;5063357;28;20174;-81
2022/11/23 04:40:01;;;;;;;0.10;0.10;;;7.60;99.90;;;;;;5056261;28;20179;-81
2022/11/23 04:42:27;;;;;;;0.10;0.10;;;7.70;99.90;;;;;;5062639;28;20184;-81
2022/11/23 04:44:52;;;;;;;0.10;0.10;;;7.70;99.90;;;;;;5056227;28;20604;-80
2022/11/23 04:47:18;;;;;;;0.10;0.10;;;7.60;99.90;;;;;;5064430;28;20169;-81
2022/11/23 04:49:43;;;;;;;0.10;0.10;;;7.60;99.90;;;;;;5058899;28;20183;-81
2022/11/23 04:52:09;;;;;;;0.10;0.10;;;7.60;99.90;;;;;;5063970;28;20186;-81
2022/11/23 04:54:34;;;;;;;0.10;0.10;;;7.70;99.90;;;;;;5061020;28;20249;-81
2022/11/23 04:57:00;;;;;;;0.10;0.10;;;7.50;99.90;;;;;;5060821;28;20231;-80
2022/11/23 04:59:25;;;;;;;0.10;0.10;;;7.40;99.90;;;;;;5054464;28;20615;-81
2022/11/23 05:01:51;;;;;;;0.10;0.10;;;7.50;99.90;;;;;;5059056;28;20539;-81
2022/11/23 05:04:18;;;;;;;0.10;0.10;;;7.50;99.90;;;;;;5056693;28;20200;-81
2022/11/23 05:06:44;;;;;;;0.10;0.10;;;7.50;99.90;;;;;;5065897;28;20713;-81
2022/11/23 05:09:10;;;;;;;0.10;0.10;;;7.40;99.90;;;;;;5057477;28;20187;-81
2022/11/23 05:11:35;;;;;;;0.10;0.10;;;7.40;99.90;;;;;;5068277;28;20257;-81
2022/11/23 05:14:01;;;;;;;0.10;0.10;;;7.40;99.90;;;;;;5056311;28;20217;-81
2022/11/23 05:16:27;;;;;;;0.10;0.10;;;7.50;99.90;;;;;;5065997;28;20220;-81
2022/11/23 05:18:52;;;;;;;0.10;0.10;;;7.50;99.90;;;;;;5056900;28;20185;-81
2022/11/23 05:21:18;;;;;;;0.10;0.10;;;7.50;99.90;;;;;;5066064;28;20642;-81
2022/11/23 05:23:43;;;;;;;0.10;0.10;;;7.40;99.90;;;;;;5057005;28;20208;-80
2022/11/23 05:26:09;;;;;;;0.10;0.10;;;7.40;99.90;;;;;;5063884;28;20212;-81
2022/11/23 05:28:34;;;;;;;0.10;0.10;;;7.40;99.90;;;;;;5060624;28;20188;-81
2022/11/23 05:31:00;;;;;;;0.10;0.10;;;7.40;99.90;;;;;;5059871;28;20184;-81
2022/11/23 05:33:25;;;;;;;0.10;0.10;;;7.30;99.90;;;;;;5059427;28;20224;-81
2022/11/23 05:35:51;;;;;;;0.10;0.10;;;7.40;99.90;;;;;;5058977;28;20176;-79
2022/11/23 05:38:16;;;;;;;0.10;0.10;;;7.30;99.90;;;;;;5062250;28;20181;-81
2022/11/23 05:40:44;;;;;;;0.10;0.10;;;7.30;99.90;;;;;;5057724;28;20177;-81
2022/11/23 05:43:09;;;;;;;0.10;0.10;;;7.10;99.90;;;;;;5067131;28;20233;-80
2022/11/23 05:45:35;;;;;;;0.10;0.10;;;7.30;99.90;;;;;;5054775;28;20235;-79
2022/11/23 05:48:01;;;;;;;0.00;0.00;;;7.20;99.90;;;;;;5066560;28;20195;-81
2022/11/23 05:50:27;;;;;;;0.10;0.10;;;7.10;99.90;;;;;;5055898;28;20251;-81
2022/11/23 05:52:57;;;;;;;0.10;0.10;;;7.10;99.90;;;;;;5069361;28;20413;-81
2022/11/23 05:55:23;;;;;;;0.10;0.10;;;7.10;99.90;;;;;;5063170;28;20189;-81
2022/11/23 05:57:49;;;;;;;0.10;0.10;;;7.00;99.90;;;;;;5062755;28;20383;-81
2022/11/23 06:00:15;;;;;;;0.10;0.10;;;7.10;99.90;;;;;;5063819;28;20177;-81
2022/11/23 06:02:41;;;;;;;0.10;0.10;;;7.10;99.90;;;;;;5066073;28;20183;-81
2022/11/23 06:05:07;;;;;;;0.10;0.10;;;7.20;99.90;;;;;;5063055;28;20296;-80
2022/11/23 06:07:33;;;;;;;0.10;0.10;;;7.10;99.90;;;;;;5070378;28;20243;-81
2022/11/23 06:09:58;;;;;;;0.10;0.10;;;7.10;99.90;;;;;;5063748;28;20192;-81
2022/11/23 06:12:24;;;;;;;0.10;0.10;;;7.10;99.90;;;;;;5066445;28;20185;-81
2022/11/23 06:14:50;;;;;;;0.10;0.10;;;7.10;99.90;;;;;;5060831;28;20311;-80
2022/11/23 06:17:15;;;;;;;0.10;0.10;;;7.20;99.90;;;;;;5067331;28;20680;-81
2022/11/23 06:19:41;;;;;;;0.10;0.10;;;7.20;99.90;;;;;;5059250;28;20654;-81
2022/11/23 06:22:07;;;;;;;0.10;0.10;;;7.40;99.90;;;;;;5069907;28;20185;-81
2022/11/23 06:24:33;;;;;;;0.10;0.10;;;7.30;99.90;;;;;;5058296;28;20331;-81
2022/11/23 06:26:58;;;;;;;0.10;0.10;;;7.30;99.90;;;;;;5068249;28;20272;-81
2022/11/23 06:29:23;;;;;;;0.00;0.00;;;7.30;99.90;;;;;;5059988;28;20288;-81
2022/11/23 06:31:49;;;;;;;0.10;0.10;;;7.20;99.90;;;;;;5056543;28;20711;-81
2022/11/23 06:34:15;;;;;;;0.10;0.10;;;7.10;99.90;;;;;;5067738;28;20238;-81
2022/11/23 06:36:42;;;;;;;0.10;0.10;;;7.20;99.90;;;;;;5061182;28;20265;-81
2022/11/23 06:39:08;;;;;;;0.10;0.10;;;7.10;99.90;;;;;;5066451;28;20642;-81
2022/11/23 06:41:33;;;;;;;0.10;0.10;;;7.10;99.90;;;;;;5062233;28;20265;-81
2022/11/23 06:43:59;;;;;;;0.10;0.10;;;6.90;99.90;;;;;;5056694;28;20306;-80
2022/11/23 06:46:24;;;;;;;0.10;0.10;;;7.00;99.90;;;;;;5062156;28;20212;-81
2022/11/23 06:48:50;;;;;;;0.10;0.10;;;7.20;99.90;;;;;;5062510;28;20253;-81
2022/11/23 06:51:15;;;;;;;0.10;0.10;;;7.30;99.90;;;;;;5067244;28;20554;-81
2022/11/23 06:53:41;;;;;;;0.10;0.10;;;7.40;99.90;;;;;;5059310;28;20197;-81
2022/11/23 06:56:07;;;;;;;0.10;0.10;;;7.20;99.90;;;;;;5068059;28;20210;-81
2022/11/23 06:58:33;;;;;;;0.10;0.10;;;7.20;99.90;;;;;;5057400;28;20185;-81
2022/11/23 07:01:04;;;;;;;0.10;0.10;;;7.00;99.90;;;;;;5072476;28;20208;-80
2022/11/23 07:03:30;;;;;;;0.10;0.10;;;6.90;99.90;;;;;;5066594;28;20254;-81
2022/11/23 07:05:56;;;;;;;0.10;0.10;;;6.90;99.90;;;;;;5066381;28;20213;-81
2022/11/23 07:08:22;;;;;;;0.10;0.10;;;7.00;99.90;;;;;;5068484;28;20181;-81
2022/11/23 07:10:48;;;;;;;0.10;0.10;;;6.90;99.90;;;;;;5058745;28;20182;-81
2022/11/23 07:13:13;;;;;;;0.10;0.10;;;7.00;99.90;;;;;;5066587;28;20273;-80
2022/11/23 07:15:40;;;;;;;0.10;0.10;;;7.00;99.90;;;;;;5061912;28;20181;-81
2022/11/23 07:18:06;;;;;;;0.10;0.10;;;6.90;99.90;;;;;;5066418;28;20185;-80
2022/11/23 07:20:32;;;;;;;0.10;0.10;;;7.00;99.90;;;;;;5062309;28;20645;-81
2022/11/23 07:23:05;;;;;;;0.10;0.10;;;7.10;99.90;;;;;;5062661;28;20217;-80
2022/11/23 07:25:33;;;;;;;0.10;0.10;;;7.20;99.90;;;;;;5062289;28;20593;-81
2022/11/23 07:28:00;;;;;;;0.10;0.10;;;7.30;99.90;;;;;;5071603;28;20204;-81
2022/11/23 07:30:28;;;;;;;0.10;0.10;;;7.20;99.90;;;;;;5059234;28;20615;-80
2022/11/23 07:32:57;;;;;;;0.10;0.10;;;7.20;99.90;;;;;;5067040;28;20245;-81
2022/11/23 07:35:23;;;;;;;0.10;0.10;;;7.20;99.90;;;;;;5058353;28;20182;-80
2022/11/23 07:37:48;;;;;;;0.10;0.10;;;7.40;99.90;;;;;;5059465;28;20237;-81
2022/11/23 07:40:14;;;;;;;0.10;0.10;;;7.20;99.90;;;;;;5070543;28;20188;-81
2022/11/23 07:42:39;;;;;;;0.10;0.10;;;7.40;99.90;;;;;;5057813;28;20193;-81
2022/11/23 07:45:06;;;;;;;0.10;0.10;;;7.50;99.90;;;;;;5068448;28;20297;-81
2022/11/23 07:47:32;;;;;;;0.10;0.10;;;7.60;99.90;;;;;;5057221;28;20215;-81
2022/11/23 07:49:57;;;;;;;0.10;0.10;;;7.70;99.90;;;;;;5067164;28;20189;-81
2022/11/23 07:52:23;;;;;;;0.10;0.10;;;7.80;99.90;;;;;;5068072;28;20234;-80
2022/11/23 07:54:48;;;;;;;0.10;0.10;;;7.90;99.90;;;;;;5060237;28;20201;-81
2022/11/23 07:57:14;;;;;;;0.10;0.10;;;8.00;99.90;;;;;;5063563;28;20193;-81
2022/11/23 07:59:39;;;;;;;0.00;0.00;;;8.20;99.90;;;;;;5062625;28;20187;-81
2022/11/23 08:02:08;;;;;;;0.10;0.10;;;8.20;99.90;;;;;;5061090;28;20186;-81
2022/11/23 08:04:34;;;;;;;0.10;0.10;;;8.30;99.90;;;;;;5059267;28;20268;-81
2022/11/23 08:07:01;;;;;;;0.10;0.10;;;8.30;99.90;;;;;;5064891;28;20178;-80
2022/11/23 08:09:26;;;;;;;0.10;0.10;;;8.40;99.90;;;;;;5059779;28;20252;-80
2022/11/23 08:11:52;;;;;;;0.10;0.10;;;8.40;99.90;;;;;;5072827;28;20177;-81
2022/11/23 08:14:17;;;;;;;0.10;0.10;;;8.60;99.90;;;;;;5060680;28;20277;-81
2022/11/23 08:16:43;;;;;;;0.10;0.10;;;8.60;99.90;;;;;;5065668;28;20699;-80
2022/11/23 08:19:08;;;;;;;0.10;0.10;;;8.70;99.90;;;;;;5074966;28;20205;-81
2022/11/23 08:21:34;;;;;;;0.10;0.10;;;8.80;99.90;;;;;;5069412;28;20193;-80
2022/11/23 08:24:00;;;;;;;0.10;0.10;;;8.90;99.90;;;;;;5070311;28;20202;-80
2022/11/23 08:26:25;;;;;;;0.10;0.10;;;8.90;99.90;;;;;;5061926;28;20586;-80
2022/11/23 08:28:51;;;;;;;0.00;0.00;;;9.00;99.90;;;;;;5068110;28;20172;-81
2022/11/23 08:31:16;;;;;;;0.10;0.10;;;9.10;99.90;;;;;;5064154;28;20190;-80
2022/11/23 08:33:42;;;;;;;0.10;0.10;;;9.20;99.90;;;;;;5067105;28;20201;-80
2022/11/23 08:36:08;;;;;;;0.10;0.10;;;9.30;99.90;;;;;;5068620;28;20530;-80
2022/11/23 08:38:34;;;;;;;0.10;0.10;;;9.40;99.90;;;;;;5071515;28;20267;-81
2022/11/23 08:41:00;;;;;;;0.10;0.10;;;9.60;99.90;;;;;;5068820;28;20192;-80
2022/11/23 08:43:27;;;;;;;0.10;0.10;;;9.70;99.90;;;;;;5059592;28;20282;-79
2022/11/23 08:45:57;;;;;;;0.10;0.10;;;9.90;99.90;;;;;;5057970;28;20199;-81
2022/11/23 08:48:23;;;;;;;0.10;0.10;;;10.10;99.90;;;;;;5067403;28;20180;-80
2022/11/23 08:50:49;;;;;;;0.10;0.10;;;10.40;99.90;;;;;;5060600;28;20175;-81
2022/11/23 08:53:15;;;;;;;0.10;0.10;;;10.60;99.90;;;;;;5068044;28;20199;-81
2022/11/23 08:55:40;;;;;;;0.10;0.10;;;10.80;99.90;;;;;;5056236;28;20769;-81
2022/11/23 08:58:07;;;;;;;0.10;0.10;;;11.10;99.90;;;;;;5067208;28;20180;-81
2022/11/23 09:00:33;;;;;;;0.10;0.10;;;11.30;99.90;;;;;;5065588;28;20176;-81
2022/11/23 09:02:59;;;;;;;0.00;0.00;;;11.30;99.90;;;;;;5060011;28;20200;-81
2022/11/23 09:05:26;;;;;;;0.10;0.10;;;11.20;99.90;;;;;;5067213;28;20606;-81
2022/11/23 09:07:51;;;;;;;0.10;0.10;;;11.20;99.90;;;;;;5060257;28;20521;-81
2022/11/23 09:10:17;;;;;;;0.10;0.10;;;11.10;99.90;;;;;;5062011;28;20184;-80
2022/11/23 09:12:42;;;;;;;0.00;0.00;;;11.00;99.90;;;;;;5062386;28;20650;-80
2022/11/23 09:15:09;;;;;;;0.10;0.10;;;10.80;99.90;;;;;;5064524;28;20276;-81
2022/11/23 09:17:35;;;;;;;0.10;0.10;;;11.00;99.90;;;;;;5056242;28;20708;-81
2022/11/23 09:20:01;;;;;;;0.10;0.10;;;10.80;99.90;;;;;;5057779;28;20230;-81
2022/11/23 09:22:26;;;;;;;0.10;0.10;;;11.00;99.90;;;;;;5067492;28;20189;-81
2022/11/23 09:24:52;;;;;;;0.10;0.10;;;10.90;99.90;;;;;;5055957;28;20288;-81
2022/11/23 09:27:18;;;;;;;0.10;0.10;;;11.20;99.90;;;;;;5064374;28;20176;-81
2022/11/23 09:29:44;;;;;;;0.10;0.10;;;11.00;99.90;;;;;;5059514;28;20547;-80
2022/11/23 09:32:10;;;;;;;0.00;0.00;;;11.10;99.90;;;;;;5055871;28;20239;-81
2022/11/23 09:34:35;;;;;;;0.10;0.10;;;11.10;99.90;;;;;;5067500;28;20193;-81
2022/11/23 09:37:01;;;;;;;0.10;0.10;;;11.20;99.90;;;;;;5057322;28;20189;-81
2022/11/23 09:39:27;;;;;;;0.00;0.00;;;11.20;99.90;;;;;;5066150;28;20177;-81
2022/11/23 09:42:12;;;;;;;0.10;0.10;;;11.10;99.90;;;;;;5066316;28;20181;-81
2022/11/23 09:45:10;;;;;;;0.10;0.10;;;10.90;99.90;;;;;;5066934;28;20192;-81
2022/11/23 09:47:51;;;;;;;0.10;0.10;;;10.90;99.90;;;;;;5064908;28;20200;-81
2022/11/23 09:50:28;;;;;;;0.10;0.10;;;10.90;99.90;;;;;;5056565;28;20188;-81
2022/11/23 09:52:54;;;;;;;0.10;0.10;;;10.70;99.90;;;;;;5066954;28;20207;-81
2022/11/23 09:55:35;;;;;;;0.10;0.10;;;10.70;99.90;;;;;;5057614;28;20670;-81
2022/11/23 09:58:04;;;;;;;0.03;0.03;;;10.80;99.90;;;;;;5069697;28;20286;-81
2022/11/23 10:00:36;;;;;;;0.10;0.10;;;10.90;99.90;;;;;;5057799;28;20858;-81
2022/11/23 10:03:02;;;;;;;0.10;0.10;;;11.00;99.90;;;;;;5066699;28;20724;-81
2022/11/23 10:05:34;;;;;;;0.10;0.10;;;11.20;99.90;;;;;;5058982;28;20743;-81
2022/11/23 10:08:15;;;;;;;0.10;0.10;;;12.00;99.90;;;;;;5052711;28;20280;-81
2022/11/23 10:10:42;;;;;;;0.10;0.10;;;12.90;99.90;;;;;;5061491;28;20191;-81
2022/11/23 10:13:34;;;;;;;0.10;0.10;;;13.70;99.90;;;;;;5059253;28;20213;-81
2022/11/23 10:16:18;;;;;;;0.07;0.07;;;14.30;99.90;;;;;;5059382;28;20662;-81
2022/11/23 10:18:49;;;;;;;7.53;7.23;;;14.50;99.90;;;;;;5057144;28;20178;-82
2022/11/23 10:21:29;;;;;;;0.10;0.10;;;14.30;99.90;;;;;;5068113;28;20271;-81
2022/11/23 10:24:13;;;;;;;0.10;0.10;;;13.40;99.90;;;;;;5057341;28;20201;-80
2022/11/23 10:26:42;;;;;;;0.10;0.10;;;12.70;99.90;;;;;;5064632;28;20205;-80
2022/11/23 10:29:28;;;;;;;0.10;0.10;;;12.00;99.90;;;;;;5056265;28;20182;-80
2022/11/23 10:31:54;;;;;;;0.10;0.10;;;11.70;99.90;;;;;;5067763;28;20188;-81
2022/11/23 10:34:55;;;;;;;0.10;0.10;;;11.50;99.90;;;;;;5058554;28;20212;-81
2022/11/23 10:37:21;;;;;;;0.10;0.10;;;11.50;99.90;;;;;;5062651;28;20316;-80
2022/11/23 10:39:46;;;;;;;0.10;0.10;;;11.50;99.90;;;;;;5070633;28;20229;-81
2022/11/23 10:42:32;;;;;;;0.10;0.10;;;11.70;99.90;;;;;;5060853;28;20191;-81
2022/11/23 10:45:00;;;;;;;0.10;0.10;;;11.80;99.90;;;;;;5064006;28;20205;-81
2022/11/23 10:47:49;;;;;;;0.10;0.10;;;12.10;99.90;;;;;;5068348;28;20186;-81
2022/11/23 10:50:25;;;;;;;0.10;0.10;;;12.40;99.90;;;;;;5059716;28;20192;-81
2022/11/23 10:52:58;;;;;;;0.10;0.10;;;12.00;99.90;;;;;;5061461;28;20178;-81
2022/11/23 10:55:27;;;;;;;0.10;0.10;;;11.80;99.90;;;;;;5070291;28;20661;-81
2022/11/23 10:57:53;;;;;;;0.10;0.10;;;11.90;99.90;;;;;;5060223;28;20549;-81
2022/11/23 11:00:21;;;;;;;0.10;0.10;;;11.60;99.90;;;;;;5069780;28;20187;-80
2022/11/23 11:02:55;;;;;;;0.10;0.10;;;11.70;99.90;;;;;;5060788;28;20525;-81
2022/11/23 11:05:24;;;;;;;0.10;0.10;;;11.80;99.90;;;;;;5067686;28;20744;-81
2022/11/23 11:07:51;;;;;;;0.10;0.10;;;11.70;99.90;;;;;;5061521;28;20186;-81
2022/11/23 11:10:38;;;;;;;0.10;0.10;;;11.80;99.90;;;;;;5066340;28;20265;-81
2022/11/23 11:13:22;;;;;;;0.10;0.10;;;12.00;99.90;;;;;;5059782;28;20689;-81
2022/11/23 11:16:29;;;;;;;0.10;0.10;;;11.90;99.90;;;;;;5066597;28;20181;-81
2022/11/23 11:18:55;;;;;;;0.00;0.00;;;11.90;99.90;;;;;;5058572;28;20178;-81
2022/11/23 11:21:33;;;;;;;0.10;0.10;;;11.90;99.90;;;;;;5066530;28;20195;-81
2022/11/23 11:24:05;;;;;;;0.10;0.10;;;12.00;99.90;;;;;;5060942;28;20623;-80
2022/11/23 11:26:33;;;;;;;0.10;0.10;;;12.00;99.90;;;;;;5066571;28;20259;-80
2022/11/23 11:29:05;;;;;;;0.10;0.10;;;12.10;99.90;;;;;;5059803;28;20200;-81
2022/11/23 11:31:53;;;;;;;0.10;0.10;;;12.00;99.90;;;;;;5062361;28;20612;-81
2022/11/23 11:34:43;;;;;;;0.10;0.10;;;12.10;99.90;;;;;;5066614;28;20203;-81
2022/11/23 11:37:27;;;;;;;0.10;0.10;;;12.20;99.90;;;;;;5085697;28;20181;-81
2022/11/23 11:40:08;;;;;;;0.10;0.10;;;12.30;99.90;;;;;;5058063;28;20180;-81
2022/11/23 11:42:47;;;;;;;0.10;0.10;;;12.20;99.90;;;;;;5058447;28;20180;-81
2022/11/23 11:45:24;;;;;;;0.10;0.10;;;12.30;99.90;;;;;;5069471;28;20207;-80
2022/11/23 11:48:19;;;;;;;0.10;0.10;;;12.40;99.90;;;;;;5060844;28;20238;-81
2022/11/23 11:51:06;;;;;;;0.10;0.10;;;12.40;99.90;;;;;;5053416;28;20188;-81
2022/11/23 11:53:40;;;;;;;0.00;0.00;;;12.40;99.90;;;;;;5068178;28;20205;-81
2022/11/23 11:56:23;;;;;;;0.10;0.10;;;12.30;99.90;;;;;;5058153;28;20181;-81
2022/11/23 11:59:02;;;;;;;0.10;0.10;;;12.50;99.90;;;;;;5058142;28;20173;-81
2022/11/23 12:01:49;;;;;;;0.10;0.10;;;12.50;99.90;;;;;;5068567;28;20181;-81
2022/11/23 12:04:31;;;;;;;0.00;0.00;;;12.10;99.90;;;;;;5058206;28;20709;-81
2022/11/23 12:07:13;;;;;;;0.10;0.10;;;12.20;99.90;;;;;;5071192;28;20188;-81
2022/11/23 12:09:43;;;;;;;0.10;0.10;;;12.30;99.90;;;;;;5059264;28;20647;-81
2022/11/23 12:12:17;;;;;;;0.10;0.10;;;11.90;99.90;;;;;;5067502;28;20173;-81
2022/11/23 12:14:44;;;;;;;0.10;0.10;;;12.10;99.90;;;;;;5054502;28;20598;-81
2022/11/23 12:17:43;;;;;;;0.10;0.10;;;12.30;99.90;;;;;;5057064;28;20710;-81
2022/11/23 12:20:51;;;;;;;0.10;0.10;;;12.50;99.90;;;;;;5062981;28;20185;-81
2022/11/23 12:23:33;;;;;;;0.10;0.10;;;12.50;99.90;;;;;;5061656;28;20614;-80
2022/11/23 12:26:14;;;;;;;0.10;0.10;;;12.60;99.90;;;;;;5069347;28;20231;-81
2022/11/23 12:29:10;;;;;;;0.10;0.10;;;12.60;99.90;;;;;;5066440;28;20585;-81
2022/11/23 12:31:49;;;;;;;0.00;0.00;;;12.40;99.90;;;;;;5061032;28;20232;-81
2022/11/23 12:34:42;;;;;;;0.10;0.10;;;12.30;99.90;;;;;;5068789;28;20228;-80
2022/11/23 12:37:20;;;;;;;0.10;0.10;;;12.50;99.90;;;;;;5069709;28;20675;-81
2022/11/23 12:40:17;;;;;;;0.10;0.10;;;12.30;99.90;;;;;;5061365;28;20183;-81
2022/11/23 12:42:52;;;;;;;0.10;0.10;;;12.40;99.90;;;;;;5060101;28;20177;-81
2022/11/23 12:45:33;;;;;;;0.10;0.10;;;12.60;99.90;;;;;;5057566;28;20228;-81
2022/11/23 12:48:24;;;;;;;0.10;0.10;;;12.70;99.90;;;;;;5058107;28;20553;-81
2022/11/23 12:51:11;;;;;;;0.10;0.10;;;12.60;99.90;;;;;;5059847;28;20189;-81
2022/11/23 12:54:22;;;;;;;0.10;0.10;;;12.60;99.90;;;;;;5059093;28;20188;-81
2022/11/23 12:56:58;;;;;;;0.10;0.10;;;12.70;99.90;;;;;;5062915;28;20173;-81
2022/11/23 12:59:28;;;;;;;0.10;0.10;;;12.70;99.90;;;;;;5064741;28;20181;-81
2022/11/23 13:02:00;;;;;;;0.00;0.00;;;12.60;99.90;;;;;;5065349;28;20185;-80
2022/11/23 13:04:54;;;;;;;0.10;0.10;;;12.60;99.90;;;;;;5065964;28;20296;-81
2022/11/23 13:07:39;;;;;;;0.10;0.10;;;12.60;99.90;;;;;;5063558;28;20193;-81